sensor_id;sensor_type;location;lat;lon;timestamp;P1;durP1;ratioP1;P2;durP2;ratioP2
61903;SDS011;47857;52.270;6.804;2022-10-16T00:01:14;5.97;;;2.25;;
61903;SDS011;47857;52.270;6.804;2022-10-16T00:03:41;5.93;;;2.00;;
61903;SDS011;47857;52.270;6.804;2022-10-16T00:06:08;9.18;;;2.00;;
61903;SDS011;47857;52.270;6.804;2022-10-16T00:08:34;9.18;;;2.10;;
61903;SDS011;47857;52.270;6.804;2022-10-16T00:11:07;6.43;;;2.10;;
61903;SDS011;47857;52.270;6.804;2022-10-16T00:13:35;8.60;;;2.30;;
61903;SDS011;47857;52.270;6.804;2022-10-16T00:16:02;7.88;;;2.40;;
61903;SDS011;47857;52.270;6.804;2022-10-16T00:18:28;12.15;;;2.78;;
61903;SDS011;47857;52.270;6.804;2022-10-16T00:20:54;7.72;;;2.72;;
61903;SDS011;47857;52.270;6.804;2022-10-16T00:23:20;7.32;;;2.53;;
61903;SDS011;47857;52.270;6.804;2022-10-16T00:25:54;5.72;;;2.22;;
61903;SDS011;47857;52.270;6.804;2022-10-16T00:28:24;8.15;;;2.20;;
61903;SDS011;47857;52.270;6.804;2022-10-16T00:30:49;8.80;;;2.42;;
61903;SDS011;47857;52.270;6.804;2022-10-16T00:33:15;5.75;;;2.20;;
61903;SDS011;47857;52.270;6.804;2022-10-16T00:35:40;5.75;;;2.28;;
61903;SDS011;47857;52.270;6.804;2022-10-16T00:38:06;8.32;;;2.30;;
61903;SDS011;47857;52.270;6.804;2022-10-16T00:40:31;6.45;;;2.25;;
61903;SDS011;47857;52.270;6.804;2022-10-16T00:42:57;8.82;;;2.50;;
61903;SDS011;47857;52.270;6.804;2022-10-16T00:45:25;7.40;;;2.70;;
61903;SDS011;47857;52.270;6.804;2022-10-16T00:47:51;7.78;;;2.83;;
61903;SDS011;47857;52.270;6.804;2022-10-16T00:52:46;10.32;;;2.40;;
61903;SDS011;47857;52.270;6.804;2022-10-16T00:55:12;7.32;;;2.65;;
61903;SDS011;47857;52.270;6.804;2022-10-16T00:57:38;6.28;;;2.30;;
61903;SDS011;47857;52.270;6.804;2022-10-16T01:00:05;7.13;;;2.42;;
61903;SDS011;47857;52.270;6.804;2022-10-16T01:02:33;8.90;;;2.40;;
61903;SDS011;47857;52.270;6.804;2022-10-16T01:04:58;8.98;;;2.40;;
61903;SDS011;47857;52.270;6.804;2022-10-16T01:15:41;7.55;;;2.90;;
61903;SDS011;47857;52.270;6.804;2022-10-16T01:18:14;9.50;;;2.60;;
61903;SDS011;47857;52.270;6.804;2022-10-16T01:23:36;9.52;;;3.20;;
61903;SDS011;47857;52.270;6.804;2022-10-16T01:29:15;13.80;;;3.53;;
61903;SDS011;47857;52.270;6.804;2022-10-16T01:31:44;10.60;;;3.47;;
61903;SDS011;47857;52.270;6.804;2022-10-16T01:34:18;9.75;;;3.20;;
61903;SDS011;47857;52.270;6.804;2022-10-16T01:36:53;7.60;;;3.10;;
61903;SDS011;47857;52.270;6.804;2022-10-16T01:39:23;9.00;;;3.60;;
61903;SDS011;47857;52.270;6.804;2022-10-16T01:42:04;8.60;;;2.92;;
61903;SDS011;47857;52.270;6.804;2022-10-16T01:44:33;7.55;;;3.40;;
61903;SDS011;47857;52.270;6.804;2022-10-16T01:47:01;7.35;;;3.08;;
61903;SDS011;47857;52.270;6.804;2022-10-16T01:49:28;7.15;;;3.17;;
61903;SDS011;47857;52.270;6.804;2022-10-16T01:51:56;9.50;;;3.75;;
61903;SDS011;47857;52.270;6.804;2022-10-16T01:54:25;13.77;;;4.05;;
61903;SDS011;47857;52.270;6.804;2022-10-16T01:56:52;10.27;;;3.97;;
61903;SDS011;47857;52.270;6.804;2022-10-16T01:59:20;10.68;;;3.70;;
61903;SDS011;47857;52.270;6.804;2022-10-16T02:01:48;6.53;;;3.55;;
61903;SDS011;47857;52.270;6.804;2022-10-16T02:04:28;8.98;;;3.63;;
61903;SDS011;47857;52.270;6.804;2022-10-16T02:06:56;9.43;;;3.85;;
61903;SDS011;47857;52.270;6.804;2022-10-16T02:09:21;9.25;;;3.92;;
61903;SDS011;47857;52.270;6.804;2022-10-16T02:11:47;10.23;;;3.67;;
61903;SDS011;47857;52.270;6.804;2022-10-16T02:14:14;9.38;;;3.70;;
61903;SDS011;47857;52.270;6.804;2022-10-16T02:16:41;8.05;;;3.67;;
61903;SDS011;47857;52.270;6.804;2022-10-16T02:19:13;8.25;;;3.80;;
61903;SDS011;47857;52.270;6.804;2022-10-16T02:21:44;13.13;;;3.72;;
61903;SDS011;47857;52.270;6.804;2022-10-16T02:24:33;10.20;;;4.05;;
61903;SDS011;47857;52.270;6.804;2022-10-16T02:27:02;10.27;;;4.10;;
61903;SDS011;47857;52.270;6.804;2022-10-16T02:29:33;12.82;;;4.72;;
61903;SDS011;47857;52.270;6.804;2022-10-16T02:32:03;10.43;;;5.03;;
61903;SDS011;47857;52.270;6.804;2022-10-16T02:34:30;11.32;;;4.18;;
61903;SDS011;47857;52.270;6.804;2022-10-16T02:36:57;11.00;;;4.80;;
61903;SDS011;47857;52.270;6.804;2022-10-16T02:39:24;10.68;;;4.75;;
61903;SDS011;47857;52.270;6.804;2022-10-16T02:41:50;13.55;;;4.45;;
61903;SDS011;47857;52.270;6.804;2022-10-16T02:44:16;13.68;;;4.70;;
61903;SDS011;47857;52.270;6.804;2022-10-16T02:46:41;6.90;;;4.15;;
61903;SDS011;47857;52.270;6.804;2022-10-16T02:49:07;6.15;;;4.10;;
61903;SDS011;47857;52.270;6.804;2022-10-16T02:51:32;9.73;;;4.05;;
61903;SDS011;47857;52.270;6.804;2022-10-16T02:53:57;9.10;;;3.80;;
61903;SDS011;47857;52.270;6.804;2022-10-16T02:56:23;9.32;;;3.50;;
61903;SDS011;47857;52.270;6.804;2022-10-16T02:58:49;9.00;;;3.55;;
61903;SDS011;47857;52.270;6.804;2022-10-16T03:01:14;5.75;;;3.28;;
61903;SDS011;47857;52.270;6.804;2022-10-16T03:03:41;10.98;;;3.55;;
61903;SDS011;47857;52.270;6.804;2022-10-16T03:06:07;6.63;;;3.58;;
61903;SDS011;47857;52.270;6.804;2022-10-16T03:08:33;8.13;;;3.50;;
61903;SDS011;47857;52.270;6.804;2022-10-16T03:10:58;4.95;;;3.45;;
61903;SDS011;47857;52.270;6.804;2022-10-16T03:13:27;7.78;;;3.42;;
61903;SDS011;47857;52.270;6.804;2022-10-16T03:15:52;6.90;;;3.15;;
61903;SDS011;47857;52.270;6.804;2022-10-16T03:18:18;6.05;;;3.08;;
61903;SDS011;47857;52.270;6.804;2022-10-16T03:20:43;6.35;;;3.22;;
61903;SDS011;47857;52.270;6.804;2022-10-16T03:23:09;5.88;;;3.03;;
61903;SDS011;47857;52.270;6.804;2022-10-16T03:25:34;6.70;;;3.33;;
61903;SDS011;47857;52.270;6.804;2022-10-16T03:28:00;5.13;;;2.90;;
61903;SDS011;47857;52.270;6.804;2022-10-16T03:30:25;5.20;;;2.78;;
61903;SDS011;47857;52.270;6.804;2022-10-16T03:32:51;5.70;;;2.80;;
61903;SDS011;47857;52.270;6.804;2022-10-16T03:35:20;5.35;;;2.63;;
61903;SDS011;47857;52.270;6.804;2022-10-16T03:37:46;12.23;;;2.80;;
61903;SDS011;47857;52.270;6.804;2022-10-16T03:40:11;5.88;;;2.63;;
61903;SDS011;47857;52.270;6.804;2022-10-16T03:42:37;6.70;;;2.88;;
61903;SDS011;47857;52.270;6.804;2022-10-16T03:45:03;4.30;;;2.85;;
61903;SDS011;47857;52.270;6.804;2022-10-16T03:47:29;5.70;;;2.40;;
61903;SDS011;47857;52.270;6.804;2022-10-16T03:49:54;6.03;;;2.22;;
61903;SDS011;47857;52.270;6.804;2022-10-16T03:52:20;5.57;;;2.67;;
61903;SDS011;47857;52.270;6.804;2022-10-16T03:54:45;5.13;;;2.40;;
61903;SDS011;47857;52.270;6.804;2022-10-16T03:57:11;4.97;;;2.60;;
61903;SDS011;47857;52.270;6.804;2022-10-16T03:59:36;5.18;;;2.38;;
61903;SDS011;47857;52.270;6.804;2022-10-16T04:02:02;5.70;;;2.40;;
61903;SDS011;47857;52.270;6.804;2022-10-16T04:04:27;4.88;;;2.33;;
61903;SDS011;47857;52.270;6.804;2022-10-16T04:06:53;3.92;;;2.30;;
61903;SDS011;47857;52.270;6.804;2022-10-16T04:09:18;4.43;;;2.28;;
61903;SDS011;47857;52.270;6.804;2022-10-16T04:11:44;7.50;;;2.47;;
61903;SDS011;47857;52.270;6.804;2022-10-16T04:14:09;6.15;;;2.30;;
61903;SDS011;47857;52.270;6.804;2022-10-16T04:16:35;3.72;;;2.40;;
61903;SDS011;47857;52.270;6.804;2022-10-16T04:19:00;4.07;;;2.28;;
61903;SDS011;47857;52.270;6.804;2022-10-16T04:21:26;5.65;;;2.03;;
61903;SDS011;47857;52.270;6.804;2022-10-16T04:23:51;3.95;;;2.40;;
61903;SDS011;47857;52.270;6.804;2022-10-16T04:26:17;5.40;;;2.35;;
61903;SDS011;47857;52.270;6.804;2022-10-16T04:28:42;5.28;;;2.65;;
61903;SDS011;47857;52.270;6.804;2022-10-16T04:31:08;5.30;;;2.58;;
61903;SDS011;47857;52.270;6.804;2022-10-16T04:33:33;12.88;;;6.88;;
61903;SDS011;47857;52.270;6.804;2022-10-16T04:35:59;18.27;;;10.07;;
61903;SDS011;47857;52.270;6.804;2022-10-16T04:38:26;6.85;;;4.10;;
61903;SDS011;47857;52.270;6.804;2022-10-16T04:40:52;16.08;;;9.32;;
61903;SDS011;47857;52.270;6.804;2022-10-16T04:43:18;21.27;;;12.13;;
61903;SDS011;47857;52.270;6.804;2022-10-16T04:45:46;5.60;;;3.50;;
61903;SDS011;47857;52.270;6.804;2022-10-16T04:48:12;7.97;;;2.90;;
61903;SDS011;47857;52.270;6.804;2022-10-16T04:50:38;5.28;;;2.38;;
61903;SDS011;47857;52.270;6.804;2022-10-16T04:53:06;5.32;;;2.55;;
61903;SDS011;47857;52.270;6.804;2022-10-16T04:55:32;4.47;;;2.55;;
61903;SDS011;47857;52.270;6.804;2022-10-16T04:57:58;4.15;;;2.72;;
61903;SDS011;47857;52.270;6.804;2022-10-16T05:00:23;5.50;;;2.60;;
61903;SDS011;47857;52.270;6.804;2022-10-16T05:02:52;3.53;;;2.58;;
61903;SDS011;47857;52.270;6.804;2022-10-16T05:05:17;5.28;;;2.53;;
61903;SDS011;47857;52.270;6.804;2022-10-16T05:07:45;3.17;;;2.47;;
61903;SDS011;47857;52.270;6.804;2022-10-16T05:10:11;4.15;;;2.58;;
61903;SDS011;47857;52.270;6.804;2022-10-16T05:12:36;7.95;;;2.40;;
61903;SDS011;47857;52.270;6.804;2022-10-16T05:15:02;4.13;;;2.42;;
61903;SDS011;47857;52.270;6.804;2022-10-16T05:17:28;5.40;;;2.28;;
61903;SDS011;47857;52.270;6.804;2022-10-16T05:19:53;4.97;;;2.53;;
61903;SDS011;47857;52.270;6.804;2022-10-16T05:22:19;8.35;;;2.30;;
61903;SDS011;47857;52.270;6.804;2022-10-16T05:24:44;5.07;;;2.30;;
61903;SDS011;47857;52.270;6.804;2022-10-16T05:27:10;6.53;;;2.25;;
61903;SDS011;47857;52.270;6.804;2022-10-16T05:29:44;5.90;;;2.60;;
61903;SDS011;47857;52.270;6.804;2022-10-16T05:32:12;4.60;;;2.33;;
61903;SDS011;47857;52.270;6.804;2022-10-16T05:34:38;6.22;;;2.13;;
61903;SDS011;47857;52.270;6.804;2022-10-16T05:37:04;5.50;;;2.40;;
61903;SDS011;47857;52.270;6.804;2022-10-16T05:39:30;3.83;;;2.33;;
61903;SDS011;47857;52.270;6.804;2022-10-16T05:41:55;9.32;;;2.50;;
61903;SDS011;47857;52.270;6.804;2022-10-16T05:44:21;4.15;;;2.35;;
61903;SDS011;47857;52.270;6.804;2022-10-16T05:46:46;3.38;;;2.08;;
61903;SDS011;47857;52.270;6.804;2022-10-16T05:49:12;4.97;;;2.42;;
61903;SDS011;47857;52.270;6.804;2022-10-16T05:51:37;3.47;;;2.20;;
61903;SDS011;47857;52.270;6.804;2022-10-16T05:54:03;3.25;;;2.30;;
61903;SDS011;47857;52.270;6.804;2022-10-16T05:56:28;4.97;;;2.42;;
61903;SDS011;47857;52.270;6.804;2022-10-16T05:58:54;5.18;;;2.47;;
61903;SDS011;47857;52.270;6.804;2022-10-16T06:01:20;6.22;;;2.40;;
61903;SDS011;47857;52.270;6.804;2022-10-16T06:03:52;3.83;;;2.40;;
61903;SDS011;47857;52.270;6.804;2022-10-16T06:06:19;4.38;;;2.17;;
61903;SDS011;47857;52.270;6.804;2022-10-16T06:08:46;3.55;;;2.13;;
61903;SDS011;47857;52.270;6.804;2022-10-16T06:11:14;6.90;;;2.22;;
61903;SDS011;47857;52.270;6.804;2022-10-16T06:13:41;3.63;;;2.50;;
61903;SDS011;47857;52.270;6.804;2022-10-16T06:16:08;4.85;;;2.53;;
61903;SDS011;47857;52.270;6.804;2022-10-16T06:18:34;4.55;;;2.28;;
61903;SDS011;47857;52.270;6.804;2022-10-16T06:21:06;3.85;;;2.30;;
61903;SDS011;47857;52.270;6.804;2022-10-16T06:23:35;3.72;;;2.30;;
61903;SDS011;47857;52.270;6.804;2022-10-16T06:26:04;3.10;;;2.17;;
61903;SDS011;47857;52.270;6.804;2022-10-16T06:28:33;6.47;;;2.40;;
61903;SDS011;47857;52.270;6.804;2022-10-16T06:30:59;3.10;;;2.38;;
61903;SDS011;47857;52.270;6.804;2022-10-16T06:33:25;6.60;;;2.58;;
61903;SDS011;47857;52.270;6.804;2022-10-16T06:35:51;4.72;;;2.70;;
61903;SDS011;47857;52.270;6.804;2022-10-16T06:38:16;3.22;;;2.28;;
61903;SDS011;47857;52.270;6.804;2022-10-16T06:40:42;6.00;;;2.50;;
61903;SDS011;47857;52.270;6.804;2022-10-16T06:43:08;9.48;;;2.42;;
61903;SDS011;47857;52.270;6.804;2022-10-16T06:45:33;4.47;;;2.50;;
61903;SDS011;47857;52.270;6.804;2022-10-16T06:47:59;4.20;;;2.35;;
61903;SDS011;47857;52.270;6.804;2022-10-16T06:50:24;3.92;;;2.38;;
61903;SDS011;47857;52.270;6.804;2022-10-16T06:52:50;8.60;;;2.15;;
61903;SDS011;47857;52.270;6.804;2022-10-16T06:55:15;5.70;;;2.50;;
61903;SDS011;47857;52.270;6.804;2022-10-16T06:57:42;4.15;;;2.42;;
61903;SDS011;47857;52.270;6.804;2022-10-16T07:00:08;6.40;;;2.28;;
61903;SDS011;47857;52.270;6.804;2022-10-16T07:02:34;3.40;;;2.17;;
61903;SDS011;47857;52.270;6.804;2022-10-16T07:05:00;5.40;;;2.60;;
61903;SDS011;47857;52.270;6.804;2022-10-16T07:07:25;5.80;;;2.30;;
61903;SDS011;47857;52.270;6.804;2022-10-16T07:09:51;4.93;;;2.35;;
61903;SDS011;47857;52.270;6.804;2022-10-16T07:12:17;6.15;;;2.22;;
61903;SDS011;47857;52.270;6.804;2022-10-16T07:14:43;6.45;;;2.33;;
61903;SDS011;47857;52.270;6.804;2022-10-16T07:17:08;4.47;;;1.92;;
61903;SDS011;47857;52.270;6.804;2022-10-16T07:19:34;4.95;;;2.13;;
61903;SDS011;47857;52.270;6.804;2022-10-16T07:21:59;7.03;;;2.50;;
61903;SDS011;47857;52.270;6.804;2022-10-16T07:24:25;5.57;;;2.40;;
61903;SDS011;47857;52.270;6.804;2022-10-16T07:26:50;4.13;;;2.15;;
61903;SDS011;47857;52.270;6.804;2022-10-16T07:29:17;5.35;;;2.00;;
61903;SDS011;47857;52.270;6.804;2022-10-16T07:31:44;4.68;;;2.17;;
61903;SDS011;47857;52.270;6.804;2022-10-16T07:34:11;4.25;;;2.30;;
61903;SDS011;47857;52.270;6.804;2022-10-16T07:36:37;5.18;;;2.28;;
61903;SDS011;47857;52.270;6.804;2022-10-16T07:39:03;6.10;;;2.40;;
61903;SDS011;47857;52.270;6.804;2022-10-16T07:41:28;4.55;;;2.28;;
61903;SDS011;47857;52.270;6.804;2022-10-16T07:43:54;4.82;;;1.92;;
61903;SDS011;47857;52.270;6.804;2022-10-16T07:46:22;4.57;;;2.40;;
61903;SDS011;47857;52.270;6.804;2022-10-16T07:48:47;5.18;;;2.05;;
61903;SDS011;47857;52.270;6.804;2022-10-16T07:51:15;4.85;;;2.22;;
61903;SDS011;47857;52.270;6.804;2022-10-16T07:53:41;4.03;;;1.92;;
61903;SDS011;47857;52.270;6.804;2022-10-16T07:56:07;4.97;;;2.13;;
61903;SDS011;47857;52.270;6.804;2022-10-16T07:58:33;4.88;;;2.08;;
61903;SDS011;47857;52.270;6.804;2022-10-16T08:01:06;4.50;;;1.73;;
61903;SDS011;47857;52.270;6.804;2022-10-16T08:03:32;4.75;;;2.20;;
61903;SDS011;47857;52.270;6.804;2022-10-16T08:05:58;6.22;;;2.22;;
61903;SDS011;47857;52.270;6.804;2022-10-16T08:08:25;7.13;;;2.00;;
61903;SDS011;47857;52.270;6.804;2022-10-16T08:10:50;7.45;;;2.20;;
61903;SDS011;47857;52.270;6.804;2022-10-16T08:13:16;5.68;;;2.38;;
61903;SDS011;47857;52.270;6.804;2022-10-16T08:15:42;7.45;;;2.15;;
61903;SDS011;47857;52.270;6.804;2022-10-16T08:18:09;6.70;;;2.22;;
61903;SDS011;47857;52.270;6.804;2022-10-16T08:20:34;4.30;;;2.00;;
61903;SDS011;47857;52.270;6.804;2022-10-16T08:23:00;6.70;;;2.00;;
61903;SDS011;47857;52.270;6.804;2022-10-16T08:25:26;5.30;;;2.05;;
61903;SDS011;47857;52.270;6.804;2022-10-16T08:27:52;7.55;;;2.28;;
61903;SDS011;47857;52.270;6.804;2022-10-16T08:30:18;9.23;;;2.20;;
61903;SDS011;47857;52.270;6.804;2022-10-16T08:32:44;5.57;;;1.90;;
61903;SDS011;47857;52.270;6.804;2022-10-16T08:35:10;4.43;;;1.83;;
61903;SDS011;47857;52.270;6.804;2022-10-16T08:37:36;3.90;;;1.80;;
61903;SDS011;47857;52.270;6.804;2022-10-16T08:40:03;5.10;;;1.90;;
61903;SDS011;47857;52.270;6.804;2022-10-16T08:42:45;5.20;;;1.80;;
61903;SDS011;47857;52.270;6.804;2022-10-16T08:51:12;8.15;;;3.22;;
61903;SDS011;47857;52.270;6.804;2022-10-16T08:53:49;5.93;;;2.70;;
61903;SDS011;47857;52.270;6.804;2022-10-16T08:56:19;14.02;;;6.45;;
61903;SDS011;47857;52.270;6.804;2022-10-16T08:58:45;7.90;;;2.85;;
61903;SDS011;47857;52.270;6.804;2022-10-16T09:01:13;7.45;;;3.35;;
61903;SDS011;47857;52.270;6.804;2022-10-16T09:06:39;7.25;;;3.15;;
61903;SDS011;47857;52.270;6.804;2022-10-16T09:09:48;5.72;;;2.33;;
61903;SDS011;47857;52.270;6.804;2022-10-16T09:12:33;5.80;;;1.88;;
61903;SDS011;47857;52.270;6.804;2022-10-16T09:17:59;8.07;;;1.95;;
61903;SDS011;47857;52.270;6.804;2022-10-16T09:25:47;6.90;;;1.90;;
61903;SDS011;47857;52.270;6.804;2022-10-16T09:28:14;7.80;;;2.08;;
61903;SDS011;47857;52.270;6.804;2022-10-16T09:30:41;6.15;;;1.70;;
61903;SDS011;47857;52.270;6.804;2022-10-16T09:33:08;6.22;;;1.90;;
61903;SDS011;47857;52.270;6.804;2022-10-16T09:35:47;6.63;;;1.80;;
61903;SDS011;47857;52.270;6.804;2022-10-16T09:38:26;4.47;;;1.45;;
61903;SDS011;47857;52.270;6.804;2022-10-16T09:40:53;4.75;;;1.58;;
61903;SDS011;47857;52.270;6.804;2022-10-16T09:43:27;4.93;;;1.80;;
61903;SDS011;47857;52.270;6.804;2022-10-16T09:48:39;8.68;;;2.10;;
61903;SDS011;47857;52.270;6.804;2022-10-16T09:51:19;6.72;;;1.90;;
61903;SDS011;47857;52.270;6.804;2022-10-16T09:53:47;5.28;;;2.08;;
61903;SDS011;47857;52.270;6.804;2022-10-16T09:56:20;4.93;;;1.63;;
61903;SDS011;47857;52.270;6.804;2022-10-16T09:58:51;4.03;;;1.42;;
61903;SDS011;47857;52.270;6.804;2022-10-16T10:01:18;8.27;;;1.70;;
61903;SDS011;47857;52.270;6.804;2022-10-16T10:03:45;9.02;;;1.95;;
61903;SDS011;47857;52.270;6.804;2022-10-16T10:06:28;5.03;;;1.67;;
61903;SDS011;47857;52.270;6.804;2022-10-16T10:14:25;5.93;;;1.98;;
61903;SDS011;47857;52.270;6.804;2022-10-16T10:17:02;5.70;;;1.80;;
61903;SDS011;47857;52.270;6.804;2022-10-16T10:19:37;6.85;;;1.77;;
61903;SDS011;47857;52.270;6.804;2022-10-16T10:38:16;10.77;;;1.83;;
61903;SDS011;47857;52.270;6.804;2022-10-16T11:02:48;9.45;;;1.58;;
61903;SDS011;47857;52.270;6.804;2022-10-16T11:05:22;10.93;;;2.08;;
61903;SDS011;47857;52.270;6.804;2022-10-16T11:07:58;9.88;;;1.80;;
61903;SDS011;47857;52.270;6.804;2022-10-16T11:10:45;8.35;;;1.83;;
61903;SDS011;47857;52.270;6.804;2022-10-16T11:15:43;13.98;;;3.38;;
61903;SDS011;47857;52.270;6.804;2022-10-16T11:18:16;14.20;;;2.67;;
61903;SDS011;47857;52.270;6.804;2022-10-16T11:21:07;10.98;;;2.38;;
61903;SDS011;47857;52.270;6.804;2022-10-16T11:23:36;9.98;;;2.60;;
61903;SDS011;47857;52.270;6.804;2022-10-16T11:26:11;15.20;;;3.60;;
61903;SDS011;47857;52.270;6.804;2022-10-16T11:28:59;11.20;;;2.83;;
61903;SDS011;47857;52.270;6.804;2022-10-16T11:34:12;11.60;;;1.73;;
61903;SDS011;47857;52.270;6.804;2022-10-16T11:39:44;9.30;;;1.50;;
61903;SDS011;47857;52.270;6.804;2022-10-16T11:42:22;11.98;;;1.92;;
61903;SDS011;47857;52.270;6.804;2022-10-16T11:55:49;13.77;;;2.15;;
61903;SDS011;47857;52.270;6.804;2022-10-16T12:06:34;11.27;;;2.20;;
61903;SDS011;47857;52.270;6.804;2022-10-16T12:08:54;10.48;;;1.85;;
61903;SDS011;47857;52.270;6.804;2022-10-16T12:16:37;11.05;;;2.03;;
61903;SDS011;47857;52.270;6.804;2022-10-16T12:19:18;10.65;;;1.88;;
61903;SDS011;47857;52.270;6.804;2022-10-16T12:21:44;10.90;;;1.90;;
61903;SDS011;47857;52.270;6.804;2022-10-16T12:27:19;10.85;;;2.08;;
61903;SDS011;47857;52.270;6.804;2022-10-16T12:30:00;9.00;;;1.52;;
61903;SDS011;47857;52.270;6.804;2022-10-16T12:34:52;10.30;;;1.88;;
61903;SDS011;47857;52.270;6.804;2022-10-16T12:37:21;10.85;;;2.00;;
61903;SDS011;47857;52.270;6.804;2022-10-16T12:40:12;11.20;;;1.75;;
61903;SDS011;47857;52.270;6.804;2022-10-16T12:42:40;10.07;;;1.77;;
61903;SDS011;47857;52.270;6.804;2022-10-16T12:45:23;14.73;;;2.08;;
61903;SDS011;47857;52.270;6.804;2022-10-16T12:47:59;10.52;;;1.92;;
61903;SDS011;47857;52.270;6.804;2022-10-16T12:50:33;9.20;;;1.83;;
61903;SDS011;47857;52.270;6.804;2022-10-16T12:53:04;10.32;;;1.85;;
61903;SDS011;47857;52.270;6.804;2022-10-16T12:56:02;8.32;;;1.50;;
61903;SDS011;47857;52.270;6.804;2022-10-16T13:27:23;10.65;;;1.83;;
61903;SDS011;47857;52.270;6.804;2022-10-16T13:30:51;9.73;;;1.60;;
61903;SDS011;47857;52.270;6.804;2022-10-16T13:33:07;11.20;;;2.10;;
61903;SDS011;47857;52.270;6.804;2022-10-16T13:35:47;11.52;;;1.92;;
61903;SDS011;47857;52.270;6.804;2022-10-16T13:38:16;10.63;;;1.80;;
61903;SDS011;47857;52.270;6.804;2022-10-16T13:43:19;9.70;;;2.03;;
61903;SDS011;47857;52.270;6.804;2022-10-16T13:45:57;10.38;;;1.65;;
61903;SDS011;47857;52.270;6.804;2022-10-16T13:48:23;24.30;;;11.00;;
61903;SDS011;47857;52.270;6.804;2022-10-16T13:51:02;21.33;;;8.18;;
61903;SDS011;47857;52.270;6.804;2022-10-16T13:53:30;15.07;;;4.65;;
61903;SDS011;47857;52.270;6.804;2022-10-16T13:55:57;20.60;;;6.20;;
61903;SDS011;47857;52.270;6.804;2022-10-16T13:58:22;15.98;;;3.50;;
61903;SDS011;47857;52.270;6.804;2022-10-16T14:03:42;9.52;;;2.67;;
61903;SDS011;47857;52.270;6.804;2022-10-16T14:06:21;13.52;;;1.85;;
61903;SDS011;47857;52.270;6.804;2022-10-16T14:08:49;9.88;;;2.25;;
61903;SDS011;47857;52.270;6.804;2022-10-16T14:11:23;12.50;;;1.90;;
61903;SDS011;47857;52.270;6.804;2022-10-16T14:13:51;10.60;;;1.77;;
61903;SDS011;47857;52.270;6.804;2022-10-16T14:16:18;11.50;;;2.20;;
61903;SDS011;47857;52.270;6.804;2022-10-16T14:18:55;13.00;;;2.25;;
61903;SDS011;47857;52.270;6.804;2022-10-16T14:21:21;9.88;;;2.08;;
61903;SDS011;47857;52.270;6.804;2022-10-16T14:23:46;9.52;;;2.33;;
61903;SDS011;47857;52.270;6.804;2022-10-16T14:26:13;10.35;;;1.95;;
61903;SDS011;47857;52.270;6.804;2022-10-16T14:28:40;10.07;;;1.80;;
61903;SDS011;47857;52.270;6.804;2022-10-16T14:33:49;8.18;;;1.60;;
61903;SDS011;47857;52.270;6.804;2022-10-16T14:36:15;11.70;;;2.35;;
61903;SDS011;47857;52.270;6.804;2022-10-16T14:41:27;13.93;;;2.10;;
61903;SDS011;47857;52.270;6.804;2022-10-16T14:43:54;10.25;;;1.50;;
61903;SDS011;47857;52.270;6.804;2022-10-16T14:46:22;9.45;;;1.70;;
61903;SDS011;47857;52.270;6.804;2022-10-16T14:48:56;12.85;;;2.00;;
61903;SDS011;47857;52.270;6.804;2022-10-16T14:51:43;12.27;;;1.90;;
61903;SDS011;47857;52.270;6.804;2022-10-16T14:54:10;11.82;;;2.00;;
61903;SDS011;47857;52.270;6.804;2022-10-16T14:56:47;9.80;;;1.85;;
61903;SDS011;47857;52.270;6.804;2022-10-16T14:59:16;13.40;;;1.85;;
61903;SDS011;47857;52.270;6.804;2022-10-16T15:01:44;13.65;;;2.13;;
61903;SDS011;47857;52.270;6.804;2022-10-16T15:04:11;11.05;;;2.20;;
61903;SDS011;47857;52.270;6.804;2022-10-16T15:06:37;9.65;;;2.10;;
61903;SDS011;47857;52.270;6.804;2022-10-16T15:09:03;9.98;;;2.10;;
61903;SDS011;47857;52.270;6.804;2022-10-16T15:11:28;9.60;;;2.00;;
61903;SDS011;47857;52.270;6.804;2022-10-16T15:13:54;12.43;;;2.40;;
61903;SDS011;47857;52.270;6.804;2022-10-16T15:16:20;10.48;;;2.08;;
61903;SDS011;47857;52.270;6.804;2022-10-16T15:18:45;9.50;;;2.33;;
61903;SDS011;47857;52.270;6.804;2022-10-16T15:21:16;8.93;;;2.05;;
61903;SDS011;47857;52.270;6.804;2022-10-16T15:23:48;7.65;;;2.05;;
61903;SDS011;47857;52.270;6.804;2022-10-16T15:26:14;10.57;;;2.10;;
61903;SDS011;47857;52.270;6.804;2022-10-16T15:28:40;10.98;;;2.25;;
61903;SDS011;47857;52.270;6.804;2022-10-16T15:31:05;9.57;;;2.08;;
61903;SDS011;47857;52.270;6.804;2022-10-16T15:33:31;12.52;;;2.30;;
61903;SDS011;47857;52.270;6.804;2022-10-16T15:35:58;9.02;;;2.22;;
61903;SDS011;47857;52.270;6.804;2022-10-16T15:38:23;13.68;;;2.60;;
61903;SDS011;47857;52.270;6.804;2022-10-16T15:40:49;10.20;;;3.08;;
61903;SDS011;47857;52.270;6.804;2022-10-16T15:43:15;12.10;;;3.80;;
61903;SDS011;47857;52.270;6.804;2022-10-16T15:45:41;11.30;;;3.63;;
61903;SDS011;47857;52.270;6.804;2022-10-16T15:48:09;14.23;;;4.32;;
61903;SDS011;47857;52.270;6.804;2022-10-16T15:50:36;13.05;;;3.90;;
61903;SDS011;47857;52.270;6.804;2022-10-16T15:53:02;10.07;;;3.58;;
61903;SDS011;47857;52.270;6.804;2022-10-16T15:55:28;13.18;;;3.83;;
61903;SDS011;47857;52.270;6.804;2022-10-16T15:57:53;10.05;;;3.97;;
61903;SDS011;47857;52.270;6.804;2022-10-16T16:00:22;13.65;;;4.30;;
61903;SDS011;47857;52.270;6.804;2022-10-16T16:02:53;13.55;;;4.47;;
61903;SDS011;47857;52.270;6.804;2022-10-16T16:05:20;14.20;;;5.03;;
61903;SDS011;47857;52.270;6.804;2022-10-16T16:07:47;15.65;;;5.15;;
61903;SDS011;47857;52.270;6.804;2022-10-16T16:10:13;15.50;;;4.97;;
61903;SDS011;47857;52.270;6.804;2022-10-16T16:12:41;14.45;;;5.03;;
61903;SDS011;47857;52.270;6.804;2022-10-16T16:15:07;13.30;;;4.30;;
61903;SDS011;47857;52.270;6.804;2022-10-16T16:17:34;13.93;;;4.55;;
61903;SDS011;47857;52.270;6.804;2022-10-16T16:20:00;17.67;;;5.20;;
61903;SDS011;47857;52.270;6.804;2022-10-16T16:22:25;14.95;;;5.22;;
61903;SDS011;47857;52.270;6.804;2022-10-16T16:24:51;17.25;;;5.72;;
61903;SDS011;47857;52.270;6.804;2022-10-16T16:27:17;16.92;;;5.65;;
61903;SDS011;47857;52.270;6.804;2022-10-16T16:29:42;17.70;;;5.45;;
61903;SDS011;47857;52.270;6.804;2022-10-16T16:32:08;37.95;;;18.42;;
61903;SDS011;47857;52.270;6.804;2022-10-16T16:34:33;49.60;;;21.88;;
61903;SDS011;47857;52.270;6.804;2022-10-16T16:37:00;65.20;;;34.58;;
61903;SDS011;47857;52.270;6.804;2022-10-16T16:39:25;40.05;;;19.92;;
61903;SDS011;47857;52.270;6.804;2022-10-16T16:41:51;65.07;;;34.67;;
61903;SDS011;47857;52.270;6.804;2022-10-16T16:44:17;58.20;;;30.95;;
61903;SDS011;47857;52.270;6.804;2022-10-16T16:46:43;30.45;;;14.73;;
61903;SDS011;47857;52.270;6.804;2022-10-16T16:49:10;28.40;;;13.02;;
61903;SDS011;47857;52.270;6.804;2022-10-16T16:51:36;26.48;;;10.05;;
61903;SDS011;47857;52.270;6.804;2022-10-16T16:54:02;26.80;;;9.57;;
61903;SDS011;47857;52.270;6.804;2022-10-16T16:56:28;23.75;;;11.18;;
61903;SDS011;47857;52.270;6.804;2022-10-16T16:58:54;29.92;;;13.65;;
61903;SDS011;47857;52.270;6.804;2022-10-16T17:01:21;24.80;;;12.05;;
61903;SDS011;47857;52.270;6.804;2022-10-16T17:03:49;22.63;;;9.88;;
61903;SDS011;47857;52.270;6.804;2022-10-16T17:06:17;14.93;;;6.93;;
61903;SDS011;47857;52.270;6.804;2022-10-16T17:08:44;18.98;;;6.75;;
61903;SDS011;47857;52.270;6.804;2022-10-16T17:11:13;17.95;;;9.70;;
61903;SDS011;47857;52.270;6.804;2022-10-16T17:13:40;22.70;;;10.35;;
61903;SDS011;47857;52.270;6.804;2022-10-16T17:16:06;25.60;;;10.82;;
61903;SDS011;47857;52.270;6.804;2022-10-16T17:18:32;23.02;;;12.00;;
61903;SDS011;47857;52.270;6.804;2022-10-16T17:20:59;25.52;;;11.95;;
61903;SDS011;47857;52.270;6.804;2022-10-16T17:23:25;28.90;;;13.25;;
61903;SDS011;47857;52.270;6.804;2022-10-16T17:25:50;28.90;;;13.07;;
61903;SDS011;47857;52.270;6.804;2022-10-16T17:28:16;32.17;;;13.77;;